sensor_id;sensor_type;location;lat;lon;timestamp;P1;durP1;ratioP1;P2;durP2;ratioP2
22007;SDS011;11168;56.976;24.168;2022-12-07T00:01:32;18.60;;;9.85;;
22007;SDS011;11168;56.976;24.168;2022-12-07T00:04:00;21.35;;;10.13;;
22007;SDS011;11168;56.976;24.168;2022-12-07T00:06:32;19.65;;;10.02;;
22007;SDS011;11168;56.976;24.168;2022-12-07T00:08:59;21.85;;;9.90;;
22007;SDS011;11168;56.976;24.168;2022-12-07T00:11:27;21.55;;;11.43;;
22007;SDS011;11168;56.976;24.168;2022-12-07T00:13:55;19.00;;;9.93;;
22007;SDS011;11168;56.976;24.168;2022-12-07T00:16:23;15.73;;;9.40;;
22007;SDS011;11168;56.976;24.168;2022-12-07T00:18:51;16.35;;;9.40;;
22007;SDS011;11168;56.976;24.168;2022-12-07T00:21:20;17.52;;;9.20;;
22007;SDS011;11168;56.976;24.168;2022-12-07T00:23:48;16.35;;;9.10;;
22007;SDS011;11168;56.976;24.168;2022-12-07T00:26:21;18.52;;;8.93;;
22007;SDS011;11168;56.976;24.168;2022-12-07T00:28:49;17.48;;;9.70;;
22007;SDS011;11168;56.976;24.168;2022-12-07T00:31:17;17.67;;;9.65;;
22007;SDS011;11168;56.976;24.168;2022-12-07T00:33:45;15.75;;;9.00;;
22007;SDS011;11168;56.976;24.168;2022-12-07T00:36:14;15.60;;;9.48;;
22007;SDS011;11168;56.976;24.168;2022-12-07T00:38:46;17.58;;;9.20;;
22007;SDS011;11168;56.976;24.168;2022-12-07T00:41:18;18.38;;;10.15;;
22007;SDS011;11168;56.976;24.168;2022-12-07T00:43:46;16.73;;;9.25;;
22007;SDS011;11168;56.976;24.168;2022-12-07T00:46:14;17.02;;;9.77;;
22007;SDS011;11168;56.976;24.168;2022-12-07T00:48:41;19.17;;;9.50;;
22007;SDS011;11168;56.976;24.168;2022-12-07T00:51:12;14.60;;;8.80;;
22007;SDS011;11168;56.976;24.168;2022-12-07T00:53:40;17.70;;;9.80;;
22007;SDS011;11168;56.976;24.168;2022-12-07T00:56:08;17.38;;;9.40;;
22007;SDS011;11168;56.976;24.168;2022-12-07T00:58:35;15.32;;;8.48;;
22007;SDS011;11168;56.976;24.168;2022-12-07T01:01:03;17.80;;;9.32;;
22007;SDS011;11168;56.976;24.168;2022-12-07T01:03:31;16.63;;;9.15;;
22007;SDS011;11168;56.976;24.168;2022-12-07T01:05:59;18.90;;;10.35;;
22007;SDS011;11168;56.976;24.168;2022-12-07T01:08:26;18.15;;;9.82;;
22007;SDS011;11168;56.976;24.168;2022-12-07T01:10:58;15.90;;;9.10;;
22007;SDS011;11168;56.976;24.168;2022-12-07T01:13:26;16.23;;;9.88;;
22007;SDS011;11168;56.976;24.168;2022-12-07T01:15:56;16.58;;;8.73;;
22007;SDS011;11168;56.976;24.168;2022-12-07T01:18:24;16.88;;;9.60;;
22007;SDS011;11168;56.976;24.168;2022-12-07T01:21:02;15.20;;;8.82;;
22007;SDS011;11168;56.976;24.168;2022-12-07T01:23:29;15.25;;;8.80;;
22007;SDS011;11168;56.976;24.168;2022-12-07T01:25:57;17.60;;;9.80;;
22007;SDS011;11168;56.976;24.168;2022-12-07T01:28:25;14.32;;;8.75;;
22007;SDS011;11168;56.976;24.168;2022-12-07T01:33:30;16.35;;;9.45;;
22007;SDS011;11168;56.976;24.168;2022-12-07T01:36:08;17.35;;;9.27;;
22007;SDS011;11168;56.976;24.168;2022-12-07T01:38:35;21.65;;;9.45;;
22007;SDS011;11168;56.976;24.168;2022-12-07T01:41:03;15.52;;;8.75;;
22007;SDS011;11168;56.976;24.168;2022-12-07T01:43:31;17.60;;;8.95;;
22007;SDS011;11168;56.976;24.168;2022-12-07T01:45:58;15.25;;;8.77;;
22007;SDS011;11168;56.976;24.168;2022-12-07T01:49:00;14.68;;;8.82;;
22007;SDS011;11168;56.976;24.168;2022-12-07T01:51:20;16.50;;;9.18;;
22007;SDS011;11168;56.976;24.168;2022-12-07T01:53:47;14.88;;;8.93;;
22007;SDS011;11168;56.976;24.168;2022-12-07T01:56:16;16.55;;;9.52;;
22007;SDS011;11168;56.976;24.168;2022-12-07T01:58:44;16.48;;;9.45;;
22007;SDS011;11168;56.976;24.168;2022-12-07T02:01:12;17.00;;;9.73;;
22007;SDS011;11168;56.976;24.168;2022-12-07T02:03:42;14.40;;;9.07;;
22007;SDS011;11168;56.976;24.168;2022-12-07T02:06:10;16.63;;;8.55;;
22007;SDS011;11168;56.976;24.168;2022-12-07T02:08:37;15.32;;;9.02;;
22007;SDS011;11168;56.976;24.168;2022-12-07T02:11:05;18.52;;;9.57;;
22007;SDS011;11168;56.976;24.168;2022-12-07T02:13:35;14.40;;;9.38;;
22007;SDS011;11168;56.976;24.168;2022-12-07T02:16:10;15.95;;;9.45;;
22007;SDS011;11168;56.976;24.168;2022-12-07T02:21:16;14.93;;;8.88;;
22007;SDS011;11168;56.976;24.168;2022-12-07T02:31:44;16.80;;;9.02;;
22007;SDS011;11168;56.976;24.168;2022-12-07T02:34:19;15.87;;;8.97;;
22007;SDS011;11168;56.976;24.168;2022-12-07T02:36:50;17.58;;;9.27;;
22007;SDS011;11168;56.976;24.168;2022-12-07T02:41:59;16.85;;;9.30;;
22007;SDS011;11168;56.976;24.168;2022-12-07T02:44:27;15.45;;;9.18;;
22007;SDS011;11168;56.976;24.168;2022-12-07T02:47:01;15.32;;;8.05;;
22007;SDS011;11168;56.976;24.168;2022-12-07T02:49:29;14.20;;;8.13;;
22007;SDS011;11168;56.976;24.168;2022-12-07T02:51:57;14.82;;;8.57;;
22007;SDS011;11168;56.976;24.168;2022-12-07T02:54:24;15.27;;;8.85;;
22007;SDS011;11168;56.976;24.168;2022-12-07T02:59:45;13.50;;;7.95;;
22007;SDS011;11168;56.976;24.168;2022-12-07T03:02:19;14.05;;;8.50;;
22007;SDS011;11168;56.976;24.168;2022-12-07T03:07:24;14.77;;;7.75;;
22007;SDS011;11168;56.976;24.168;2022-12-07T03:10:07;13.48;;;8.25;;
22007;SDS011;11168;56.976;24.168;2022-12-07T03:15:23;14.93;;;7.97;;
22007;SDS011;11168;56.976;24.168;2022-12-07T03:17:54;14.70;;;8.15;;
22007;SDS011;11168;56.976;24.168;2022-12-07T03:20:23;11.77;;;7.60;;
22007;SDS011;11168;56.976;24.168;2022-12-07T03:22:52;12.43;;;6.95;;
22007;SDS011;11168;56.976;24.168;2022-12-07T03:25:20;14.40;;;7.88;;
22007;SDS011;11168;56.976;24.168;2022-12-07T03:27:49;13.63;;;8.00;;
22007;SDS011;11168;56.976;24.168;2022-12-07T03:30:19;12.87;;;7.27;;
22007;SDS011;11168;56.976;24.168;2022-12-07T03:35:23;13.68;;;8.02;;
22007;SDS011;11168;56.976;24.168;2022-12-07T03:37:56;15.80;;;8.00;;
22007;SDS011;11168;56.976;24.168;2022-12-07T03:43:09;13.10;;;7.55;;
22007;SDS011;11168;56.976;24.168;2022-12-07T03:45:41;14.25;;;8.38;;
22007;SDS011;11168;56.976;24.168;2022-12-07T03:48:14;14.57;;;7.78;;
22007;SDS011;11168;56.976;24.168;2022-12-07T03:50:53;13.23;;;7.90;;
22007;SDS011;11168;56.976;24.168;2022-12-07T03:53:24;13.00;;;7.93;;
22007;SDS011;11168;56.976;24.168;2022-12-07T03:58:20;13.20;;;7.82;;
22007;SDS011;11168;56.976;24.168;2022-12-07T04:00:49;12.90;;;7.80;;
22007;SDS011;11168;56.976;24.168;2022-12-07T04:03:17;13.43;;;7.95;;
22007;SDS011;11168;56.976;24.168;2022-12-07T04:05:44;13.00;;;7.68;;
22007;SDS011;11168;56.976;24.168;2022-12-07T04:08:12;10.85;;;6.72;;
22007;SDS011;11168;56.976;24.168;2022-12-07T04:10:39;11.35;;;7.18;;
22007;SDS011;11168;56.976;24.168;2022-12-07T04:13:06;10.82;;;7.35;;
22007;SDS011;11168;56.976;24.168;2022-12-07T04:15:33;12.07;;;7.68;;
22007;SDS011;11168;56.976;24.168;2022-12-07T04:18:01;13.50;;;7.40;;
22007;SDS011;11168;56.976;24.168;2022-12-07T04:20:28;13.68;;;8.10;;
22007;SDS011;11168;56.976;24.168;2022-12-07T04:22:56;11.27;;;6.97;;
22007;SDS011;11168;56.976;24.168;2022-12-07T04:25:23;11.35;;;7.15;;
22007;SDS011;11168;56.976;24.168;2022-12-07T04:27:50;12.90;;;7.82;;
22007;SDS011;11168;56.976;24.168;2022-12-07T04:30:18;12.25;;;6.97;;
22007;SDS011;11168;56.976;24.168;2022-12-07T04:32:45;14.45;;;6.90;;
22007;SDS011;11168;56.976;24.168;2022-12-07T04:35:12;11.50;;;7.10;;
22007;SDS011;11168;56.976;24.168;2022-12-07T04:37:39;12.48;;;7.15;;
22007;SDS011;11168;56.976;24.168;2022-12-07T04:40:08;12.52;;;7.20;;
22007;SDS011;11168;56.976;24.168;2022-12-07T04:42:37;11.73;;;7.50;;
22007;SDS011;11168;56.976;24.168;2022-12-07T04:45:04;13.23;;;7.53;;
22007;SDS011;11168;56.976;24.168;2022-12-07T04:47:32;12.50;;;7.32;;
22007;SDS011;11168;56.976;24.168;2022-12-07T04:49:59;13.63;;;7.50;;
22007;SDS011;11168;56.976;24.168;2022-12-07T04:52:27;12.85;;;7.30;;
22007;SDS011;11168;56.976;24.168;2022-12-07T04:54:54;13.15;;;7.65;;
22007;SDS011;11168;56.976;24.168;2022-12-07T04:57:22;12.60;;;8.05;;
22007;SDS011;11168;56.976;24.168;2022-12-07T04:59:49;13.70;;;7.70;;
22007;SDS011;11168;56.976;24.168;2022-12-07T05:02:16;13.75;;;7.38;;
22007;SDS011;11168;56.976;24.168;2022-12-07T05:04:43;11.93;;;7.43;;
22007;SDS011;11168;56.976;24.168;2022-12-07T05:07:11;14.95;;;8.00;;
22007;SDS011;11168;56.976;24.168;2022-12-07T05:09:38;13.38;;;7.97;;
22007;SDS011;11168;56.976;24.168;2022-12-07T05:12:05;15.35;;;7.28;;
22007;SDS011;11168;56.976;24.168;2022-12-07T05:14:32;14.68;;;7.97;;
22007;SDS011;11168;56.976;24.168;2022-12-07T05:17:00;13.65;;;7.60;;
22007;SDS011;11168;56.976;24.168;2022-12-07T05:19:27;14.65;;;7.85;;
22007;SDS011;11168;56.976;24.168;2022-12-07T05:21:54;12.13;;;7.90;;
22007;SDS011;11168;56.976;24.168;2022-12-07T05:24:21;14.05;;;8.35;;
22007;SDS011;11168;56.976;24.168;2022-12-07T05:26:49;11.93;;;7.82;;
22007;SDS011;11168;56.976;24.168;2022-12-07T05:29:16;12.55;;;7.63;;
22007;SDS011;11168;56.976;24.168;2022-12-07T05:31:44;12.43;;;8.05;;
22007;SDS011;11168;56.976;24.168;2022-12-07T05:34:12;13.63;;;7.60;;
22007;SDS011;11168;56.976;24.168;2022-12-07T05:36:40;15.40;;;8.23;;
22007;SDS011;11168;56.976;24.168;2022-12-07T05:39:07;12.73;;;7.60;;
22007;SDS011;11168;56.976;24.168;2022-12-07T05:41:34;11.93;;;7.03;;
22007;SDS011;11168;56.976;24.168;2022-12-07T05:44:20;12.98;;;7.78;;
22007;SDS011;11168;56.976;24.168;2022-12-07T05:46:47;12.70;;;8.15;;
22007;SDS011;11168;56.976;24.168;2022-12-07T05:49:15;15.13;;;8.10;;
22007;SDS011;11168;56.976;24.168;2022-12-07T05:51:42;14.82;;;7.55;;
22007;SDS011;11168;56.976;24.168;2022-12-07T05:54:09;13.60;;;8.10;;
22007;SDS011;11168;56.976;24.168;2022-12-07T05:56:36;15.00;;;8.10;;
22007;SDS011;11168;56.976;24.168;2022-12-07T05:59:04;14.30;;;8.32;;
22007;SDS011;11168;56.976;24.168;2022-12-07T06:01:50;15.02;;;8.70;;
22007;SDS011;11168;56.976;24.168;2022-12-07T06:04:18;12.90;;;7.60;;
22007;SDS011;11168;56.976;24.168;2022-12-07T06:06:45;14.63;;;8.25;;
22007;SDS011;11168;56.976;24.168;2022-12-07T06:09:13;14.35;;;8.30;;
22007;SDS011;11168;56.976;24.168;2022-12-07T06:11:40;12.65;;;7.65;;
22007;SDS011;11168;56.976;24.168;2022-12-07T06:14:26;15.23;;;7.60;;
22007;SDS011;11168;56.976;24.168;2022-12-07T06:16:54;15.93;;;8.23;;
22007;SDS011;11168;56.976;24.168;2022-12-07T06:19:21;14.32;;;7.65;;
22007;SDS011;11168;56.976;24.168;2022-12-07T06:21:48;14.13;;;8.23;;
22007;SDS011;11168;56.976;24.168;2022-12-07T06:24:16;14.80;;;7.93;;
22007;SDS011;11168;56.976;24.168;2022-12-07T06:26:44;14.48;;;7.72;;
22007;SDS011;11168;56.976;24.168;2022-12-07T06:29:11;16.33;;;9.10;;
22007;SDS011;11168;56.976;24.168;2022-12-07T06:31:39;15.95;;;8.20;;
22007;SDS011;11168;56.976;24.168;2022-12-07T06:34:08;14.57;;;8.80;;
22007;SDS011;11168;56.976;24.168;2022-12-07T06:36:36;15.23;;;8.50;;
22007;SDS011;11168;56.976;24.168;2022-12-07T06:39:04;21.75;;;8.73;;
22007;SDS011;11168;56.976;24.168;2022-12-07T06:41:31;14.57;;;8.65;;
22007;SDS011;11168;56.976;24.168;2022-12-07T06:43:59;16.85;;;8.57;;
22007;SDS011;11168;56.976;24.168;2022-12-07T06:46:26;14.25;;;8.05;;
22007;SDS011;11168;56.976;24.168;2022-12-07T06:48:53;18.33;;;8.90;;
22007;SDS011;11168;56.976;24.168;2022-12-07T06:51:21;13.18;;;8.10;;
22007;SDS011;11168;56.976;24.168;2022-12-07T06:53:48;15.68;;;8.80;;
22007;SDS011;11168;56.976;24.168;2022-12-07T06:56:15;13.73;;;8.35;;
22007;SDS011;11168;56.976;24.168;2022-12-07T06:58:43;18.70;;;9.10;;
22007;SDS011;11168;56.976;24.168;2022-12-07T07:01:11;16.88;;;8.10;;
22007;SDS011;11168;56.976;24.168;2022-12-07T07:03:38;13.75;;;8.15;;
22007;SDS011;11168;56.976;24.168;2022-12-07T07:06:06;13.85;;;8.25;;
22007;SDS011;11168;56.976;24.168;2022-12-07T07:08:34;13.93;;;8.38;;
22007;SDS011;11168;56.976;24.168;2022-12-07T07:11:02;19.20;;;8.52;;
22007;SDS011;11168;56.976;24.168;2022-12-07T07:13:29;14.00;;;8.05;;
22007;SDS011;11168;56.976;24.168;2022-12-07T07:15:57;14.55;;;8.13;;
22007;SDS011;11168;56.976;24.168;2022-12-07T07:18:24;15.10;;;8.70;;
22007;SDS011;11168;56.976;24.168;2022-12-07T07:20:52;15.95;;;8.55;;
22007;SDS011;11168;56.976;24.168;2022-12-07T07:23:20;15.15;;;8.10;;
22007;SDS011;11168;56.976;24.168;2022-12-07T07:25:47;17.42;;;8.40;;
22007;SDS011;11168;56.976;24.168;2022-12-07T07:28:15;16.90;;;8.73;;
22007;SDS011;11168;56.976;24.168;2022-12-07T07:30:42;16.63;;;8.15;;
22007;SDS011;11168;56.976;24.168;2022-12-07T07:33:10;14.55;;;8.43;;
22007;SDS011;11168;56.976;24.168;2022-12-07T07:35:37;15.82;;;8.55;;
22007;SDS011;11168;56.976;24.168;2022-12-07T07:38:05;13.73;;;8.63;;
22007;SDS011;11168;56.976;24.168;2022-12-07T07:40:33;16.52;;;7.75;;
22007;SDS011;11168;56.976;24.168;2022-12-07T07:43:01;15.18;;;9.15;;
22007;SDS011;11168;56.976;24.168;2022-12-07T07:45:28;14.80;;;8.02;;
22007;SDS011;11168;56.976;24.168;2022-12-07T07:47:55;19.20;;;9.15;;
22007;SDS011;11168;56.976;24.168;2022-12-07T07:50:23;18.23;;;8.85;;
22007;SDS011;11168;56.976;24.168;2022-12-07T07:52:50;17.05;;;8.55;;
22007;SDS011;11168;56.976;24.168;2022-12-07T07:55:18;14.93;;;9.40;;
22007;SDS011;11168;56.976;24.168;2022-12-07T07:57:45;13.73;;;6.95;;
22007;SDS011;11168;56.976;24.168;2022-12-07T08:00:20;14.85;;;7.93;;
22007;SDS011;11168;56.976;24.168;2022-12-07T08:02:47;14.13;;;7.95;;
22007;SDS011;11168;56.976;24.168;2022-12-07T08:05:14;17.23;;;8.70;;
22007;SDS011;11168;56.976;24.168;2022-12-07T08:07:42;13.90;;;7.78;;
22007;SDS011;11168;56.976;24.168;2022-12-07T08:10:10;18.23;;;8.75;;
22007;SDS011;11168;56.976;24.168;2022-12-07T08:12:38;16.80;;;8.27;;
22007;SDS011;11168;56.976;24.168;2022-12-07T08:15:29;14.80;;;8.38;;
22007;SDS011;11168;56.976;24.168;2022-12-07T08:17:57;23.65;;;8.23;;
22007;SDS011;11168;56.976;24.168;2022-12-07T08:20:25;14.10;;;8.23;;
22007;SDS011;11168;56.976;24.168;2022-12-07T08:22:52;14.13;;;8.15;;
22007;SDS011;11168;56.976;24.168;2022-12-07T08:25:20;14.55;;;8.60;;
22007;SDS011;11168;56.976;24.168;2022-12-07T08:27:48;13.63;;;8.07;;
22007;SDS011;11168;56.976;24.168;2022-12-07T08:30:16;17.27;;;8.65;;
22007;SDS011;11168;56.976;24.168;2022-12-07T08:32:46;13.68;;;7.88;;
22007;SDS011;11168;56.976;24.168;2022-12-07T08:35:14;14.18;;;7.88;;
22007;SDS011;11168;56.976;24.168;2022-12-07T08:37:41;14.80;;;7.95;;
22007;SDS011;11168;56.976;24.168;2022-12-07T08:40:09;16.77;;;8.38;;
22007;SDS011;11168;56.976;24.168;2022-12-07T08:42:37;13.90;;;7.65;;
22007;SDS011;11168;56.976;24.168;2022-12-07T08:45:07;13.30;;;8.02;;
22007;SDS011;11168;56.976;24.168;2022-12-07T08:47:36;14.23;;;7.65;;
22007;SDS011;11168;56.976;24.168;2022-12-07T08:50:04;17.50;;;7.93;;
22007;SDS011;11168;56.976;24.168;2022-12-07T08:52:33;13.35;;;7.35;;
22007;SDS011;11168;56.976;24.168;2022-12-07T08:55:02;12.35;;;7.85;;
22007;SDS011;11168;56.976;24.168;2022-12-07T08:57:30;15.50;;;8.55;;
22007;SDS011;11168;56.976;24.168;2022-12-07T08:59:59;16.42;;;7.53;;
22007;SDS011;11168;56.976;24.168;2022-12-07T09:02:27;17.27;;;7.82;;
22007;SDS011;11168;56.976;24.168;2022-12-07T09:04:54;14.10;;;7.43;;
22007;SDS011;11168;56.976;24.168;2022-12-07T09:07:21;13.73;;;7.65;;
22007;SDS011;11168;56.976;24.168;2022-12-07T09:09:49;12.82;;;7.65;;
22007;SDS011;11168;56.976;24.168;2022-12-07T09:12:16;13.05;;;7.68;;
22007;SDS011;11168;56.976;24.168;2022-12-07T09:14:43;18.55;;;8.35;;
22007;SDS011;11168;56.976;24.168;2022-12-07T09:17:12;16.40;;;9.00;;
22007;SDS011;11168;56.976;24.168;2022-12-07T09:19:39;12.63;;;7.10;;
22007;SDS011;11168;56.976;24.168;2022-12-07T09:22:08;15.82;;;8.32;;
22007;SDS011;11168;56.976;24.168;2022-12-07T09:24:35;11.48;;;7.03;;
22007;SDS011;11168;56.976;24.168;2022-12-07T09:27:03;20.45;;;7.90;;
22007;SDS011;11168;56.976;24.168;2022-12-07T09:29:30;13.23;;;6.97;;
22007;SDS011;11168;56.976;24.168;2022-12-07T09:31:57;15.55;;;8.48;;
22007;SDS011;11168;56.976;24.168;2022-12-07T09:34:25;14.15;;;7.60;;
22007;SDS011;11168;56.976;24.168;2022-12-07T09:36:53;14.05;;;7.50;;
22007;SDS011;11168;56.976;24.168;2022-12-07T09:39:20;15.07;;;8.15;;
22007;SDS011;11168;56.976;24.168;2022-12-07T09:41:47;11.13;;;6.95;;
22007;SDS011;11168;56.976;24.168;2022-12-07T09:44:20;15.63;;;7.28;;
22007;SDS011;11168;56.976;24.168;2022-12-07T09:46:48;14.93;;;7.80;;
22007;SDS011;11168;56.976;24.168;2022-12-07T09:49:18;16.50;;;8.23;;
22007;SDS011;11168;56.976;24.168;2022-12-07T09:51:46;11.30;;;6.28;;
22007;SDS011;11168;56.976;24.168;2022-12-07T09:54:14;12.40;;;7.15;;
22007;SDS011;11168;56.976;24.168;2022-12-07T09:56:42;14.63;;;7.05;;
22007;SDS011;11168;56.976;24.168;2022-12-07T09:59:12;15.10;;;7.13;;
22007;SDS011;11168;56.976;24.168;2022-12-07T10:01:46;12.70;;;7.78;;
22007;SDS011;11168;56.976;24.168;2022-12-07T10:04:32;13.98;;;7.68;;
22007;SDS011;11168;56.976;24.168;2022-12-07T10:06:59;12.32;;;7.10;;
22007;SDS011;11168;56.976;24.168;2022-12-07T10:09:27;14.18;;;7.45;;
22007;SDS011;11168;56.976;24.168;2022-12-07T10:14:32;17.33;;;7.65;;
22007;SDS011;11168;56.976;24.168;2022-12-07T10:17:36;12.07;;;6.80;;
22007;SDS011;11168;56.976;24.168;2022-12-07T10:23:05;12.68;;;7.45;;
22007;SDS011;11168;56.976;24.168;2022-12-07T10:25:33;15.02;;;7.30;;
22007;SDS011;11168;56.976;24.168;2022-12-07T10:33:36;11.80;;;6.82;;
22007;SDS011;11168;56.976;24.168;2022-12-07T10:38:44;12.07;;;5.65;;
22007;SDS011;11168;56.976;24.168;2022-12-07T10:41:12;14.95;;;7.25;;
22007;SDS011;11168;56.976;24.168;2022-12-07T10:43:46;10.93;;;7.05;;
22007;SDS011;11168;56.976;24.168;2022-12-07T10:54:20;10.98;;;6.38;;
22007;SDS011;11168;56.976;24.168;2022-12-07T10:57:04;10.80;;;7.05;;
22007;SDS011;11168;56.976;24.168;2022-12-07T10:59:40;11.07;;;6.05;;
22007;SDS011;11168;56.976;24.168;2022-12-07T11:05:11;11.10;;;6.75;;
22007;SDS011;11168;56.976;24.168;2022-12-07T11:07:46;11.43;;;7.22;;
22007;SDS011;11168;56.976;24.168;2022-12-07T11:10:22;10.65;;;6.65;;
22007;SDS011;11168;56.976;24.168;2022-12-07T11:13:04;15.30;;;7.53;;
22007;SDS011;11168;56.976;24.168;2022-12-07T11:18:21;10.23;;;6.68;;
22007;SDS011;11168;56.976;24.168;2022-12-07T11:31:38;11.40;;;7.05;;
22007;SDS011;11168;56.976;24.168;2022-12-07T11:36:47;11.00;;;6.45;;
22007;SDS011;11168;56.976;24.168;2022-12-07T11:41:54;14.30;;;7.47;;
22007;SDS011;11168;56.976;24.168;2022-12-07T11:47:10;15.77;;;7.90;;
22007;SDS011;11168;56.976;24.168;2022-12-07T11:49:47;12.18;;;6.90;;
22007;SDS011;11168;56.976;24.168;2022-12-07T11:52:29;17.00;;;7.25;;
22007;SDS011;11168;56.976;24.168;2022-12-07T11:54:58;13.32;;;7.85;;
22007;SDS011;11168;56.976;24.168;2022-12-07T11:57:32;13.20;;;7.22;;
22007;SDS011;11168;56.976;24.168;2022-12-07T12:00:05;17.17;;;7.88;;
22007;SDS011;11168;56.976;24.168;2022-12-07T13:03:29;16.30;;;7.85;;
22007;SDS011;11168;56.976;24.168;2022-12-07T13:08:44;16.67;;;7.97;;
22007;SDS011;11168;56.976;24.168;2022-12-07T13:11:18;14.98;;;8.18;;
22007;SDS011;11168;56.976;24.168;2022-12-07T13:13:47;14.63;;;8.18;;
22007;SDS011;11168;56.976;24.168;2022-12-07T13:18:41;11.48;;;7.32;;
22007;SDS011;11168;56.976;24.168;2022-12-07T13:26:14;16.38;;;7.65;;
22007;SDS011;11168;56.976;24.168;2022-12-07T13:28:44;15.50;;;8.18;;
22007;SDS011;11168;56.976;24.168;2022-12-07T13:33:46;15.35;;;8.48;;
22007;SDS011;11168;56.976;24.168;2022-12-07T13:36:16;15.98;;;7.93;;
22007;SDS011;11168;56.976;24.168;2022-12-07T13:38:49;14.88;;;8.13;;
22007;SDS011;11168;56.976;24.168;2022-12-07T13:41:17;14.15;;;8.30;;
22007;SDS011;11168;56.976;24.168;2022-12-07T13:43:50;15.65;;;8.23;;
22007;SDS011;11168;56.976;24.168;2022-12-07T13:46:24;14.60;;;8.02;;
22007;SDS011;11168;56.976;24.168;2022-12-07T13:48:52;14.77;;;8.57;;
22007;SDS011;11168;56.976;24.168;2022-12-07T13:51:25;15.98;;;8.85;;
22007;SDS011;11168;56.976;24.168;2022-12-07T13:53:54;18.27;;;8.98;;
22007;SDS011;11168;56.976;24.168;2022-12-07T13:56:34;18.10;;;9.18;;
22007;SDS011;11168;56.976;24.168;2022-12-07T13:59:02;16.20;;;8.63;;
22007;SDS011;11168;56.976;24.168;2022-12-07T14:01:32;18.00;;;10.02;;
22007;SDS011;11168;56.976;24.168;2022-12-07T14:06:49;17.17;;;9.10;;
22007;SDS011;11168;56.976;24.168;2022-12-07T14:09:24;15.98;;;9.07;;
22007;SDS011;11168;56.976;24.168;2022-12-07T14:11:53;18.50;;;9.48;;
22007;SDS011;11168;56.976;24.168;2022-12-07T14:14:27;17.63;;;9.15;;
22007;SDS011;11168;56.976;24.168;2022-12-07T14:17:09;16.63;;;9.60;;
22007;SDS011;11168;56.976;24.168;2022-12-07T14:22:20;14.32;;;8.65;;
22007;SDS011;11168;56.976;24.168;2022-12-07T14:24:49;19.03;;;9.50;;
22007;SDS011;11168;56.976;24.168;2022-12-07T14:27:17;16.80;;;9.48;;
22007;SDS011;11168;56.976;24.168;2022-12-07T14:29:46;17.52;;;9.27;;
22007;SDS011;11168;56.976;24.168;2022-12-07T14:32:24;15.02;;;9.07;;
22007;SDS011;11168;56.976;24.168;2022-12-07T14:37:22;14.88;;;7.88;;
22007;SDS011;11168;56.976;24.168;2022-12-07T14:39:49;15.15;;;8.55;;
22007;SDS011;11168;56.976;24.168;2022-12-07T14:42:17;15.75;;;9.32;;
22007;SDS011;11168;56.976;24.168;2022-12-07T14:44:44;16.70;;;9.27;;
22007;SDS011;11168;56.976;24.168;2022-12-07T14:47:12;15.50;;;9.55;;
22007;SDS011;11168;56.976;24.168;2022-12-07T14:49:59;18.85;;;9.75;;
22007;SDS011;11168;56.976;24.168;2022-12-07T14:52:31;16.08;;;9.23;;
22007;SDS011;11168;56.976;24.168;2022-12-07T14:55:23;16.13;;;9.60;;
22007;SDS011;11168;56.976;24.168;2022-12-07T14:57:51;17.70;;;9.52;;
22007;SDS011;11168;56.976;24.168;2022-12-07T15:00:18;16.73;;;9.30;;
22007;SDS011;11168;56.976;24.168;2022-12-07T15:02:46;19.02;;;9.75;;
22007;SDS011;11168;56.976;24.168;2022-12-07T15:05:14;16.23;;;9.73;;
22007;SDS011;11168;56.976;24.168;2022-12-07T15:07:43;21.90;;;9.95;;
22007;SDS011;11168;56.976;24.168;2022-12-07T15:10:21;17.20;;;9.50;;
22007;SDS011;11168;56.976;24.168;2022-12-07T15:12:50;18.75;;;9.70;;
22007;SDS011;11168;56.976;24.168;2022-12-07T15:15:17;19.55;;;9.32;;
22007;SDS011;11168;56.976;24.168;2022-12-07T15:17:44;16.85;;;8.65;;
22007;SDS011;11168;56.976;24.168;2022-12-07T15:20:13;19.65;;;10.07;;
22007;SDS011;11168;56.976;24.168;2022-12-07T15:22:40;21.67;;;9.82;;
22007;SDS011;11168;56.976;24.168;2022-12-07T15:25:08;22.90;;;10.63;;
22007;SDS011;11168;56.976;24.168;2022-12-07T15:27:35;16.88;;;9.95;;
22007;SDS011;11168;56.976;24.168;2022-12-07T15:30:03;16.73;;;9.38;;
22007;SDS011;11168;56.976;24.168;2022-12-07T15:32:30;16.02;;;8.70;;
22007;SDS011;11168;56.976;24.168;2022-12-07T15:34:58;19.35;;;10.65;;
22007;SDS011;11168;56.976;24.168;2022-12-07T15:37:26;19.17;;;10.57;;
22007;SDS011;11168;56.976;24.168;2022-12-07T15:39:53;15.90;;;9.43;;
22007;SDS011;11168;56.976;24.168;2022-12-07T15:42:20;17.27;;;9.68;;
22007;SDS011;11168;56.976;24.168;2022-12-07T15:44:47;19.35;;;9.52;;
22007;SDS011;11168;56.976;24.168;2022-12-07T15:47:35;18.35;;;9.90;;
22007;SDS011;11168;56.976;24.168;2022-12-07T15:50:22;15.30;;;8.88;;
22007;SDS011;11168;56.976;24.168;2022-12-07T15:52:50;16.80;;;9.48;;
22007;SDS011;11168;56.976;24.168;2022-12-07T15:55:17;19.42;;;10.18;;
22007;SDS011;11168;56.976;24.168;2022-12-07T15:57:44;17.38;;;9.88;;
22007;SDS011;11168;56.976;24.168;2022-12-07T16:00:12;17.35;;;9.32;;
22007;SDS011;11168;56.976;24.168;2022-12-07T16:02:40;19.38;;;9.88;;
22007;SDS011;11168;56.976;24.168;2022-12-07T16:05:07;16.90;;;9.40;;
22007;SDS011;11168;56.976;24.168;2022-12-07T16:07:34;14.93;;;8.85;;
22007;SDS011;11168;56.976;24.168;2022-12-07T16:10:02;17.92;;;9.93;;
22007;SDS011;11168;56.976;24.168;2022-12-07T16:12:29;15.45;;;8.60;;
22007;SDS011;11168;56.976;24.168;2022-12-07T16:14:56;19.50;;;10.30;;
22007;SDS011;11168;56.976;24.168;2022-12-07T16:17:24;15.15;;;9.02;;
22007;SDS011;11168;56.976;24.168;2022-12-07T16:19:51;20.95;;;9.32;;
22007;SDS011;11168;56.976;24.168;2022-12-07T16:22:19;16.88;;;10.13;;
22007;SDS011;11168;56.976;24.168;2022-12-07T16:24:46;15.65;;;9.25;;
22007;SDS011;11168;56.976;24.168;2022-12-07T16:27:14;16.60;;;8.90;;
22007;SDS011;11168;56.976;24.168;2022-12-07T16:29:41;17.80;;;9.95;;
22007;SDS011;11168;56.976;24.168;2022-12-07T16:32:08;18.58;;;10.15;;
22007;SDS011;11168;56.976;24.168;2022-12-07T16:34:36;15.77;;;8.95;;
22007;SDS011;11168;56.976;24.168;2022-12-07T16:37:03;15.20;;;8.73;;
22007;SDS011;11168;56.976;24.168;2022-12-07T16:39:31;15.65;;;8.48;;
22007;SDS011;11168;56.976;24.168;2022-12-07T16:41:59;15.27;;;8.75;;
22007;SDS011;11168;56.976;24.168;2022-12-07T16:44:26;17.20;;;9.18;;
22007;SDS011;11168;56.976;24.168;2022-12-07T16:46:54;18.23;;;9.27;;
22007;SDS011;11168;56.976;24.168;2022-12-07T16:49:22;17.48;;;8.50;;
22007;SDS011;11168;56.976;24.168;2022-12-07T16:51:50;16.52;;;8.32;;
22007;SDS011;11168;56.976;24.168;2022-12-07T16:54:38;20.23;;;9.57;;
22007;SDS011;11168;56.976;24.168;2022-12-07T16:57:05;21.05;;;10.27;;
22007;SDS011;11168;56.976;24.168;2022-12-07T16:59:32;16.00;;;9.75;;
22007;SDS011;11168;56.976;24.168;2022-12-07T17:01:59;19.88;;;10.30;;
22007;SDS011;11168;56.976;24.168;2022-12-07T17:04:27;18.73;;;9.65;;
22007;SDS011;11168;56.976;24.168;2022-12-07T17:06:55;16.67;;;9.38;;
22007;SDS011;11168;56.976;24.168;2022-12-07T17:09:22;17.42;;;9.70;;
22007;SDS011;11168;56.976;24.168;2022-12-07T17:11:50;17.13;;;9.07;;
22007;SDS011;11168;56.976;24.168;2022-12-07T17:14:17;17.58;;;9.60;;